createdAt,value
2022-09-20T00:01:08.520Z,101502.16
2022-09-20T00:03:36.622Z,101507.41
2022-09-20T00:06:05.161Z,101504.22
2022-09-20T00:08:31.879Z,101501.00
2022-09-20T00:11:10.549Z,101515.19
2022-09-20T00:13:39.028Z,101510.09
2022-09-20T00:16:14.219Z,101501.16
2022-09-20T00:18:41.235Z,101499.88
2022-09-20T00:21:12.317Z,101496.47
2022-09-20T00:23:38.672Z,101499.81
2022-09-20T00:26:05.183Z,101498.50
2022-09-20T00:28:33.234Z,101495.53
2022-09-20T00:31:00.756Z,101498.00
2022-09-20T00:33:47.204Z,101496.69
2022-09-20T00:36:13.632Z,101489.88
2022-09-20T00:38:40.116Z,101497.50
2022-09-20T00:41:06.653Z,101492.41
2022-09-20T00:43:44.681Z,101505.91
2022-09-20T00:46:23.127Z,101503.72
2022-09-20T00:48:55.824Z,101500.53
2022-09-20T00:51:29.822Z,101503.50
2022-09-20T00:53:58.783Z,101503.69
2022-09-20T00:56:39.179Z,101500.28
2022-09-20T00:59:17.053Z,101508.28
2022-09-20T01:01:46.323Z,101505.94
2022-09-20T01:04:14.793Z,101499.75
2022-09-20T01:06:44.763Z,101505.66
2022-09-20T01:09:11.138Z,101499.09
2022-09-20T01:11:39.115Z,101506.50
2022-09-20T01:14:05.707Z,101504.16
2022-09-20T01:16:34.159Z,101494.19
2022-09-20T01:19:05.697Z,101497.50
2022-09-20T01:21:32.602Z,101502.56
2022-09-20T01:24:09.043Z,101502.94
2022-09-20T01:27:00.504Z,101500.97
2022-09-20T01:29:39.151Z,101503.25
2022-09-20T01:32:11.695Z,101500.50
2022-09-20T01:34:48.207Z,101504.47
2022-09-20T01:37:19.234Z,101509.16
2022-09-20T01:39:54.053Z,101498.16
2022-09-20T01:42:26.211Z,101496.44
2022-09-20T01:45:01.349Z,101504.00
2022-09-20T01:47:44.295Z,101498.91
2022-09-20T01:50:33.607Z,101497.59
2022-09-20T01:53:17.343Z,101497.81
2022-09-20T01:56:03.668Z,101496.09
2022-09-20T01:59:23.087Z,101501.78
2022-09-20T02:01:53.151Z,101509.38
2022-09-20T02:04:22.239Z,101505.94
2022-09-20T02:07:10.427Z,101514.19
2022-09-20T02:09:45.829Z,101507.88
2022-09-20T02:12:43.888Z,101516.78
2022-09-20T02:15:25.153Z,101512.59
2022-09-20T02:18:24.933Z,101506.91
2022-09-20T02:21:03.659Z,101508.41
2022-09-20T02:23:48.552Z,101508.41
2022-09-20T02:26:39.162Z,101507.84
2022-09-20T02:29:23.781Z,101513.41
2022-09-20T02:31:59.600Z,101505.41
2022-09-20T02:34:51.947Z,101512.06
2022-09-20T02:37:36.908Z,101505.59
2022-09-20T02:40:32.126Z,101509.91
2022-09-20T02:43:16.251Z,101510.84
2022-09-20T02:46:04.815Z,101507.06
2022-09-20T02:49:00.507Z,101510.78
2022-09-20T02:51:35.568Z,101504.19
2022-09-20T02:54:29.529Z,101509.28
2022-09-20T02:57:04.315Z,101507.84
2022-09-20T02:59:44.405Z,101513.00
2022-09-20T03:02:31.078Z,101508.13
2022-09-20T03:05:32.076Z,101514.25
2022-09-20T03:08:33.322Z,101516.19
2022-09-20T03:11:08.512Z,101503.06
2022-09-20T03:14:00.672Z,101500.97
2022-09-20T03:16:42.365Z,101502.66
2022-09-20T03:19:48.319Z,101491.66
2022-09-20T03:22:53.346Z,101488.72
2022-09-20T03:25:57.496Z,101494.66
2022-09-20T03:28:56.184Z,101488.94
2022-09-20T03:31:22.523Z,101494.25
2022-09-20T03:34:20.655Z,101500.81
2022-09-20T03:37:05.802Z,101500.81
2022-09-20T03:39:44.823Z,101504.81
2022-09-20T03:42:16.460Z,101500.16
2022-09-20T03:44:58.723Z,101501.44
2022-09-20T03:47:46.508Z,101507.13
2022-09-20T03:50:51.553Z,101512.44
2022-09-20T03:53:55.752Z,101508.16
2022-09-20T03:56:32.451Z,101504.78
2022-09-20T03:59:26.881Z,101511.13
2022-09-20T04:02:34.628Z,101509.25
2022-09-20T04:05:06.377Z,101514.53
2022-09-20T04:07:35.721Z,101517.97
2022-09-20T04:10:24.331Z,101517.09
2022-09-20T04:12:53.507Z,101509.88
2022-09-20T04:15:30.205Z,101522.78
2022-09-20T04:18:30.613Z,101519.41
2022-09-20T04:21:17.029Z,101516.84
2022-09-20T04:24:25.276Z,101519.13
2022-09-20T04:27:05.987Z,101517.41
2022-09-20T04:29:48.093Z,101515.34
2022-09-20T04:32:19.418Z,101520.00
2022-09-20T04:35:18.402Z,101522.53
2022-09-20T04:37:45.243Z,101525.28
2022-09-20T04:40:15.876Z,101524.06
2022-09-20T04:43:03.981Z,101526.34
2022-09-20T04:45:52.155Z,101528.44
2022-09-20T04:48:38.061Z,101524.63
2022-09-20T04:51:45.745Z,101529.28
2022-09-20T04:54:24.966Z,101539.91
2022-09-20T04:57:10.482Z,101539.06
2022-09-20T05:00:02.435Z,101536.97
2022-09-20T05:02:50.458Z,101536.56
2022-09-20T05:05:25.822Z,101536.16
2022-09-20T05:08:20.718Z,101538.50
2022-09-20T05:10:53.087Z,101536.25
2022-09-20T05:13:28.437Z,101549.41
2022-09-20T05:16:01.687Z,101548.16
2022-09-20T05:18:43.114Z,101554.97
2022-09-20T05:21:32.527Z,101544.16
2022-09-20T05:24:17.049Z,101549.94
2022-09-20T05:26:46.885Z,101546.09
2022-09-20T05:29:47.107Z,101547.16
2022-09-20T05:32:44.238Z,101555.44
2022-09-20T05:35:13.700Z,101555.22
2022-09-20T05:38:03.009Z,101559.03
2022-09-20T05:40:35.202Z,101563.88
2022-09-20T05:43:13.013Z,101563.03
2022-09-20T05:46:05.392Z,101563.03
2022-09-20T05:49:01.311Z,101567.69
2022-09-20T05:51:42.301Z,101569.84
2022-09-20T05:54:36.213Z,101571.16
2022-09-20T05:57:24.286Z,101581.78
2022-09-20T06:00:02.539Z,101582.03
2022-09-20T06:02:51.118Z,101577.63
2022-09-20T06:05:33.555Z,101586.56
2022-09-20T06:08:17.807Z,101588.25
2022-09-20T06:11:06.088Z,101585.28
2022-09-20T06:13:41.281Z,101574.06
2022-09-20T06:16:17.092Z,101582.34
2022-09-20T06:19:14.968Z,101584.25
2022-09-20T06:21:49.957Z,101584.25
2022-09-20T06:24:48.227Z,101582.78
2022-09-20T06:27:30.019Z,101580.28
2022-09-20T06:30:00.419Z,101592.59
2022-09-20T06:32:27.233Z,101591.34
2022-09-20T06:34:54.723Z,101587.97
2022-09-20T06:38:02.640Z,101596.50
2022-09-20T06:40:55.208Z,101589.53
2022-09-20T06:43:21.624Z,101591.47
2022-09-20T06:45:48.511Z,101597.88
2022-09-20T06:48:15.563Z,101600.03
2022-09-20T06:50:45.612Z,101598.81
2022-09-20T06:53:16.880Z,101605.00
2022-09-20T06:55:45.080Z,101603.91
2022-09-20T06:58:11.791Z,101610.09
2022-09-20T07:00:39.760Z,101608.81
2022-09-20T07:03:07.016Z,101609.06
2022-09-20T07:05:33.391Z,101607.63
2022-09-20T07:08:01.081Z,101608.69
2022-09-20T07:10:28.258Z,101614.66
2022-09-20T07:12:59.414Z,101610.66
2022-09-20T07:15:32.416Z,101606.19
2022-09-20T07:18:00.231Z,101614.28
2022-09-20T07:20:27.352Z,101611.28
2022-09-20T07:22:53.751Z,101600.69
2022-09-20T07:25:21.583Z,101611.97
2022-09-20T07:27:50.302Z,101618.56
2022-09-20T07:30:18.603Z,101611.38
2022-09-20T07:32:45.155Z,101616.06
2022-09-20T07:35:12.879Z,101617.16
2022-09-20T07:37:42.087Z,101611.84
2022-09-20T07:40:10.810Z,101614.00
2022-09-20T07:42:37.704Z,101614.91
2022-09-20T07:45:04.695Z,101611.09
2022-09-20T07:47:35.381Z,101614.94
2022-09-20T07:50:02.972Z,101614.09
2022-09-20T07:52:29.360Z,101620.09
2022-09-20T07:54:56.229Z,101619.44
2022-09-20T07:57:22.647Z,101618.81
2022-09-20T07:59:49.015Z,101622.63
2022-09-20T08:02:16.404Z,101618.16
2022-09-20T08:04:43.367Z,101611.28
2022-09-20T08:07:10.436Z,101616.19
2022-09-20T08:09:36.866Z,101611.63
2022-09-20T08:14:52.386Z,101605.81
2022-09-20T08:17:19.499Z,101617.72
2022-09-20T08:19:45.910Z,101616.34
2022-09-20T08:22:12.621Z,101614.16
2022-09-20T08:24:39.419Z,101617.66
2022-09-20T08:27:05.887Z,101613.38
2022-09-20T08:29:32.795Z,101599.25
2022-09-20T08:32:01.100Z,101608.56
2022-09-20T08:34:27.612Z,101615.38
2022-09-20T08:36:56.474Z,101609.38
2022-09-20T08:42:24.828Z,101608.19
2022-09-20T08:45:02.007Z,101614.59
2022-09-20T08:47:28.303Z,101603.72
2022-09-20T08:49:58.314Z,101604.19
2022-09-20T08:52:35.836Z,101612.31
2022-09-20T08:55:12.464Z,101610.88
2022-09-20T08:57:39.009Z,101611.69
2022-09-20T09:00:06.931Z,101606.13
2022-09-20T09:02:34.355Z,101609.56
2022-09-20T09:05:03.099Z,101615.09
2022-09-20T09:07:29.512Z,101610.41
2022-09-20T09:09:56.633Z,101613.41
2022-09-20T09:12:29.775Z,101616.56
2022-09-20T09:15:03.868Z,101615.50
2022-09-20T09:17:31.437Z,101608.03
2022-09-20T09:20:00.219Z,101616.34
2022-09-20T09:22:39.579Z,101612.94
2022-09-20T09:25:16.832Z,101607.69
2022-09-20T09:27:53.953Z,101617.09
2022-09-20T09:30:32.264Z,101612.16
2022-09-20T09:33:28.168Z,101601.50
2022-09-20T09:36:21.628Z,101600.19
2022-09-20T09:38:48.402Z,101597.00
2022-09-20T09:41:17.612Z,101597.41
2022-09-20T09:43:45.477Z,101597.53
2022-09-20T09:46:26.238Z,101605.13
2022-09-20T09:49:17.184Z,101603.28
2022-09-20T09:52:04.891Z,101599.44
2022-09-20T09:54:36.052Z,101599.59
2022-09-20T09:57:15.914Z,101600.38
2022-09-20T09:59:59.395Z,101599.88
2022-09-20T10:03:03.845Z,101593.31
2022-09-20T10:05:41.916Z,101585.38
2022-09-20T10:08:46.999Z,101588.28
2022-09-20T10:11:38.203Z,101582.59
2022-09-20T10:14:35.357Z,101579.63
2022-09-20T10:17:16.747Z,101574.97
2022-09-20T10:20:06.501Z,101576.72
2022-09-20T10:23:26.509Z,101573.59
2022-09-20T10:26:03.164Z,101576.16
2022-09-20T10:29:13.314Z,101588.13
2022-09-20T10:32:00.347Z,101576.00
2022-09-20T10:34:56.324Z,101579.72
2022-09-20T10:37:32.146Z,101578.09
2022-09-20T10:40:55.075Z,101572.63
2022-09-20T10:44:05.954Z,101569.16
2022-09-20T10:46:40.909Z,101567.13
2022-09-20T10:49:40.794Z,101571.19
2022-09-20T10:52:29.114Z,101579.19
2022-09-20T10:55:04.615Z,101569.72
2022-09-20T10:57:37.009Z,101573.97
2022-09-20T11:00:20.504Z,101572.63
2022-09-20T11:03:18.911Z,101576.72
2022-09-20T11:06:11.437Z,101578.28
2022-09-20T11:08:38.324Z,101572.72
2022-09-20T11:11:13.169Z,101571.63
2022-09-20T11:14:08.871Z,101582.03
2022-09-20T11:17:00.570Z,101580.06
2022-09-20T11:19:42.792Z,101582.44
2022-09-20T11:22:15.182Z,101585.06
2022-09-20T11:24:47.828Z,101579.66
2022-09-20T11:27:32.608Z,101590.25
2022-09-20T11:30:01.972Z,101588.03
2022-09-20T11:32:45.417Z,101590.06
2022-09-20T11:35:11.728Z,101590.75
2022-09-20T11:37:44.515Z,101590.13
2022-09-20T11:40:17.372Z,101600.41
2022-09-20T11:42:44.372Z,101601.09
2022-09-20T11:45:13.516Z,101588.91
2022-09-20T11:47:54.970Z,101591.53
2022-09-20T11:50:47.583Z,101603.09
2022-09-20T11:53:35.836Z,101605.72
2022-09-20T11:56:32.164Z,101604.47
2022-09-20T11:59:01.308Z,101598.09
2022-09-20T12:01:47.977Z,101608.19
2022-09-20T12:04:33.900Z,101606.34
2022-09-20T12:07:17.840Z,101607.50
2022-09-20T12:09:51.943Z,101610.75
2022-09-20T12:12:36.547Z,101615.91
2022-09-20T12:15:07.897Z,101615.91
2022-09-20T12:17:46.397Z,101610.34
2022-09-20T12:20:34.883Z,101623.84
2022-09-20T12:23:38.532Z,101620.22
2022-09-20T12:26:10.975Z,101606.09
2022-09-20T12:28:42.600Z,101613.91
2022-09-20T12:31:18.292Z,101614.44
2022-09-20T12:34:13.184Z,101613.06
2022-09-20T12:36:45.047Z,101606.03
2022-09-20T12:39:11.354Z,101602.03
2022-09-20T12:41:58.746Z,101601.34
2022-09-20T12:44:25.047Z,101597.19
2022-09-20T12:46:57.065Z,101603.81
2022-09-20T12:49:48.142Z,101590.94
2022-09-20T12:52:49.808Z,101598.47
2022-09-20T12:55:35.045Z,101597.72
2022-09-20T12:58:14.248Z,101600.16
2022-09-20T13:00:46.776Z,101592.91
2022-09-20T13:03:24.900Z,101590.84
2022-09-20T13:06:14.855Z,101595.28
2022-09-20T13:08:51.200Z,101592.94
2022-09-20T13:11:23.056Z,101582.75
2022-09-20T13:13:50.470Z,101588.69
2022-09-20T13:16:22.689Z,101595.41
2022-09-20T13:19:05.506Z,101592.59
2022-09-20T13:21:34.833Z,101604.50
2022-09-20T13:24:02.260Z,101607.13
2022-09-20T13:26:35.936Z,101604.66
2022-09-20T13:29:04.629Z,101605.59
2022-09-20T13:31:33.635Z,101600.13
2022-09-20T13:34:20.814Z,101603.72
2022-09-20T13:36:51.882Z,101601.56
2022-09-20T13:39:38.612Z,101600.63
2022-09-20T13:42:11.582Z,101604.03
2022-09-20T13:44:38.877Z,101607.91
2022-09-20T13:47:44.323Z,101605.50
2022-09-20T13:50:34.654Z,101593.91
2022-09-20T13:53:03.339Z,101600.53
2022-09-20T13:55:39.701Z,101602.72
2022-09-20T13:58:09.697Z,101610.38
2022-09-20T14:00:38.386Z,101603.28
2022-09-20T14:03:05.198Z,101601.25
2022-09-20T14:05:31.841Z,101595.22
2022-09-20T14:08:00.541Z,101597.75
2022-09-20T14:10:30.982Z,101592.19
2022-09-20T14:13:01.068Z,101598.75
2022-09-20T14:15:33.438Z,101599.31
2022-09-20T14:18:01.284Z,101601.03
2022-09-20T14:20:27.784Z,101606.00
2022-09-20T14:22:59.026Z,101602.53
2022-09-20T14:25:27.372Z,101596.22
2022-09-20T14:28:19.484Z,101594.28
2022-09-20T14:30:47.649Z,101576.31
2022-09-20T14:33:18.496Z,101578.81
2022-09-20T14:35:51.983Z,101575.41
2022-09-20T14:38:24.052Z,101578.22
2022-09-20T14:40:51.831Z,101570.00
2022-09-20T14:43:26.265Z,101580.22
2022-09-20T14:45:56.079Z,101576.72
2022-09-20T14:48:22.462Z,101561.66
2022-09-20T14:51:17.885Z,101566.59
2022-09-20T14:53:53.019Z,101577.84
2022-09-20T14:56:38.200Z,101578.44
2022-09-20T14:59:09.279Z,101577.94
2022-09-20T15:01:38.937Z,101575.78
2022-09-20T15:04:25.847Z,101574.72
2022-09-20T15:06:53.121Z,101576.16
2022-09-20T15:09:20.930Z,101571.81
2022-09-20T15:11:49.931Z,101571.81
2022-09-20T15:14:16.825Z,101577.59
2022-09-20T15:16:43.273Z,101574.44
2022-09-20T15:19:09.703Z,101575.28
2022-09-20T15:21:36.287Z,101570.31
2022-09-20T15:24:02.668Z,101579.97
2022-09-20T15:26:32.540Z,101581.91
2022-09-20T15:28:59.324Z,101577.06
2022-09-20T15:31:25.836Z,101581.53
2022-09-20T15:33:52.570Z,101584.41
2022-09-20T15:36:18.938Z,101579.81
2022-09-20T15:38:45.650Z,101580.31
2022-09-20T15:41:12.021Z,101589.72
2022-09-20T15:43:39.856Z,101578.97
2022-09-20T15:46:20.511Z,101584.16
2022-09-20T15:48:46.971Z,101578.34
2022-09-20T15:51:15.154Z,101570.25
2022-09-20T15:53:48.585Z,101570.47
2022-09-20T15:56:19.256Z,101571.44
2022-09-20T15:58:48.883Z,101573.22
2022-09-20T16:01:19.513Z,101572.72
2022-09-20T16:03:46.617Z,101569.53
2022-09-20T16:06:13.566Z,101570.47
2022-09-20T16:08:42.187Z,101583.38
2022-09-20T16:11:12.141Z,101567.88
2022-09-20T16:13:39.134Z,101570.50
2022-09-20T16:16:08.397Z,101574.97
2022-09-20T16:18:55.088Z,101580.06
2022-09-20T16:21:21.907Z,101570.66
2022-09-20T16:23:51.408Z,101576.50
2022-09-20T16:26:19.783Z,101584.13
2022-09-20T16:28:47.764Z,101578.50
2022-09-20T16:32:03.575Z,101572.66
2022-09-20T16:34:35.230Z,101581.56
2022-09-20T16:37:05.806Z,101586.91
2022-09-20T16:39:32.600Z,101579.78
2022-09-20T16:42:04.790Z,101570.47
2022-09-20T16:44:36.321Z,101574.28
2022-09-20T16:47:07.002Z,101581.16
2022-09-20T16:49:35.120Z,101581.69
2022-09-20T16:52:04.087Z,101575.41
2022-09-20T16:54:32.142Z,101575.59
2022-09-20T16:56:59.014Z,101580.66
2022-09-20T16:59:25.484Z,101576.28
2022-09-20T17:01:52.508Z,101584.47
2022-09-20T17:04:20.139Z,101579.28
2022-09-20T17:06:48.027Z,101596.84
2022-09-20T17:09:15.930Z,101597.00
2022-09-20T17:11:47.257Z,101607.38
2022-09-20T17:14:15.010Z,101608.06
2022-09-20T17:16:42.367Z,101606.34
2022-09-20T17:19:13.325Z,101610.47
2022-09-20T17:21:45.096Z,101616.97
2022-09-20T17:24:12.104Z,101617.94
2022-09-20T17:26:40.826Z,101618.38
2022-09-20T17:29:10.223Z,101629.06
2022-09-20T17:31:39.107Z,101627.59
2022-09-20T17:34:08.458Z,101632.22
2022-09-20T17:36:39.157Z,101635.13
2022-09-20T17:39:06.997Z,101638.69
2022-09-20T17:41:37.329Z,101645.59
2022-09-20T17:44:08.180Z,101648.91
2022-09-20T17:46:37.046Z,101657.28
2022-09-20T17:49:06.853Z,101655.03
2022-09-20T17:51:36.952Z,101658.22
2022-09-20T17:54:03.866Z,101661.47
2022-09-20T17:56:31.217Z,101663.41
2022-09-20T17:58:59.013Z,101661.72
2022-09-20T18:01:27.255Z,101667.28
2022-09-20T18:03:56.171Z,101674.94
2022-09-20T18:06:28.604Z,101675.81
2022-09-20T18:09:02.831Z,101685.81
2022-09-20T18:11:31.835Z,101682.22
2022-09-20T18:13:59.561Z,101685.19
2022-09-20T18:16:26.429Z,101689.88
2022-09-20T18:18:53.284Z,101689.44
2022-09-20T18:21:24.641Z,101693.31
2022-09-20T18:23:52.323Z,101692.03
2022-09-20T18:26:24.191Z,101698.63
2022-09-20T18:28:54.931Z,101710.13
2022-09-20T18:31:22.753Z,101705.63
2022-09-20T18:33:52.553Z,101716.47
2022-09-20T18:36:18.943Z,101717.97
2022-09-20T18:38:49.515Z,101722.25
2022-09-20T18:41:16.528Z,101727.72
2022-09-20T18:43:46.373Z,101725.19
2022-09-20T18:46:13.511Z,101716.25
2022-09-20T18:48:40.179Z,101727.31
2022-09-20T18:51:08.897Z,101728.38
2022-09-20T18:53:37.455Z,101732.41
2022-09-20T18:56:20.653Z,101736.88
2022-09-20T18:58:47.427Z,101741.38
2022-09-20T19:01:53.338Z,101747.75
2022-09-20T19:04:54.439Z,101746.03
2022-09-20T19:07:26.909Z,101733.25
2022-09-20T19:09:59.630Z,101742.22
2022-09-20T19:12:34.013Z,101734.53
2022-09-20T19:15:19.871Z,101737.94
2022-09-20T19:18:04.332Z,101743.69
2022-09-20T19:20:54.278Z,101737.94
2022-09-20T19:23:45.133Z,101745.59
2022-09-20T19:26:22.345Z,101756.66
2022-09-20T19:28:50.511Z,101755.19
2022-09-20T19:31:26.554Z,101753.28
2022-09-20T19:33:55.418Z,101762.81
2022-09-20T19:36:23.627Z,101759.19
2022-09-20T19:39:16.962Z,101766.00
2022-09-20T19:41:53.143Z,101769.41
2022-09-20T19:44:43.888Z,101768.06
2022-09-20T19:47:16.441Z,101781.88
2022-09-20T19:49:55.166Z,101770.63
2022-09-20T19:52:23.513Z,101781.88
2022-09-20T19:54:51.189Z,101778.47
2022-09-20T19:57:22.883Z,101788.88
2022-09-20T19:59:50.916Z,101781.41
2022-09-20T20:02:18.211Z,101785.66
2022-09-20T20:04:44.977Z,101787.97
2022-09-20T20:07:28.288Z,101787.09
2022-09-20T20:10:06.466Z,101796.84
2022-09-20T20:13:25.029Z,101800.22
2022-09-20T20:16:00.590Z,101801.03
2022-09-20T20:18:45.032Z,101820.13
2022-09-20T20:21:21.268Z,101803.97
2022-09-20T20:23:53.641Z,101804.75
2022-09-20T20:26:23.375Z,101805.16
2022-09-20T20:28:51.660Z,101807.69
2022-09-20T20:31:19.580Z,101808.94
2022-09-20T20:33:46.004Z,101811.25
2022-09-20T20:36:12.419Z,101818.22
2022-09-20T20:38:40.313Z,101814.81
2022-09-20T20:41:12.450Z,101818.00
2022-09-20T20:43:41.388Z,101824.56
2022-09-20T20:46:12.264Z,101823.25
2022-09-20T20:48:38.684Z,101831.28
2022-09-20T20:51:09.468Z,101825.97
2022-09-20T20:53:40.769Z,101830.38
2022-09-20T20:56:12.809Z,101826.13
2022-09-20T20:58:41.149Z,101833.31
2022-09-20T21:01:10.312Z,101840.91
2022-09-20T21:03:37.206Z,101845.50
2022-09-20T21:06:06.892Z,101840.41
2022-09-20T21:08:36.013Z,101840.81
2022-09-20T21:11:05.545Z,101839.47
2022-09-20T21:13:32.943Z,101844.06
2022-09-20T21:16:22.882Z,101848.91
2022-09-20T21:18:50.313Z,101849.88
2022-09-20T21:21:25.807Z,101848.56
2022-09-20T21:23:54.482Z,101847.72
2022-09-20T21:26:22.217Z,101851.06
2022-09-20T21:28:53.834Z,101843.84
2022-09-20T21:31:22.407Z,101852.69
2022-09-20T21:33:49.373Z,101849.47
2022-09-20T21:36:18.497Z,101851.75
2022-09-20T21:38:45.536Z,101854.44
2022-09-20T21:41:13.251Z,101859.28
2022-09-20T21:43:42.781Z,101857.59
2022-09-20T21:46:14.693Z,101858.81
2022-09-20T21:48:41.425Z,101870.47
2022-09-20T21:51:10.698Z,101856.22
2022-09-20T21:53:38.464Z,101861.72
2022-09-20T21:56:07.253Z,101866.75
2022-09-20T21:58:34.635Z,101861.63
2022-09-20T22:01:04.011Z,101871.31
2022-09-20T22:03:32.765Z,101866.41
2022-09-20T22:06:12.317Z,101873.34
2022-09-20T22:08:49.836Z,101872.00
2022-09-20T22:11:17.552Z,101869.81
2022-09-20T22:13:46.596Z,101876.38
2022-09-20T22:16:18.895Z,101872.09
2022-09-20T22:18:46.802Z,101874.22
2022-09-20T22:21:16.903Z,101872.50
2022-09-20T22:23:44.102Z,101880.94
2022-09-20T22:26:13.916Z,101873.06
2022-09-20T22:28:41.376Z,101873.44
2022-09-20T22:31:07.776Z,101880.19
2022-09-20T22:33:35.984Z,101878.47
2022-09-20T22:36:02.572Z,101886.91
2022-09-20T22:38:30.147Z,101879.25
2022-09-20T22:40:58.022Z,101878.94
2022-09-20T22:43:24.665Z,101879.34
2022-09-20T22:45:51.338Z,101882.47
2022-09-20T22:48:17.786Z,101888.53
2022-09-20T22:50:44.285Z,101882.16
2022-09-20T22:53:10.742Z,101885.31
2022-09-20T22:55:37.460Z,101881.00
2022-09-20T22:58:03.936Z,101881.38
2022-09-20T23:00:30.290Z,101878.16
2022-09-20T23:02:58.848Z,101878.53
2022-09-20T23:05:26.747Z,101882.72
2022-09-20T23:07:53.134Z,101882.44
2022-09-20T23:10:19.516Z,101881.75
2022-09-20T23:12:50.327Z,101882.13
2022-09-20T23:15:16.812Z,101875.28
2022-09-20T23:17:43.167Z,101883.88
2022-09-20T23:20:09.647Z,101883.88
2022-09-20T23:22:36.082Z,101883.19
2022-09-20T23:25:02.431Z,101887.19
2022-09-20T23:27:28.820Z,101884.97
2022-09-20T23:29:55.178Z,101883.63
2022-09-20T23:32:21.615Z,101890.38
2022-09-20T23:34:48.670Z,101886.75
2022-09-20T23:37:15.101Z,101885.25
2022-09-20T23:39:41.736Z,101886.47
2022-09-20T23:42:08.109Z,101888.91
2022-09-20T23:44:34.462Z,101893.06
2022-09-20T23:47:00.872Z,101880.72
2022-09-20T23:49:27.549Z,101884.72
2022-09-20T23:51:53.974Z,101893.31
2022-09-20T23:54:20.439Z,101884.75
2022-09-20T23:56:47.579Z,101883.25
2022-09-20T23:59:13.929Z,101888.06
